Terminal Aerodrome Forecast
Issued by NWS Knoxville/Tri Cities, TN

Current Version | Previous Version | Text Only | Print | Product List | Glossary On
Versions: 1 2 3 4 5 6 7 8 9 10 11 12 13 14 15 16 17 18 19 20 21 22 23 24 25 26
000
FTUS44 KMRX 072342
TAFCHA
TAF
KCHA 072342Z 0800/0824 24004KT P6SM SCT150 BKN250
     FM080200 20005KT P6SM SCT250
     FM080800 22005KT P6SM BKN050 OVC100
     FM081200 21007KT P6SM OVC030
     FM081400 25005KT P6SM OVC050
     FM081800 26010G18KT P6SM VCSH OVC050
     FM082200 26011G20KT P6SM -RA OVC025=

USA.gov is the U.S. government's official web portal to all federal, state and local government web resources and services.